• Join FlightAware (Why Join?)
  • Login
  • US Flag 
Gobble Gobble! 
06:33PM EST


 

Airport Tracker/Info


-or-


 

Live Flight TrackerFlight Track Log ✈ SWA318 ✈ 20-Aug-2013 ✈ KEWR - KSTL

Flight Track Log - Related Links

Times and Time Zones

All times are in EDT time to prevent confusion due to time zone crossing. See the SWA318 flight status page for this flight to view local times or setup timezone preferences in your user account.

Time Position Orientation Groundspeed Altitude Reporting Facility
EDT Latitude Longitude Course Direction KTS MPH feet Rate Location/Type
06:16PM 40.6500 -74.1833 270° West 171 197 1,600  Level New York TRACON
06:17PM 40.6500 -74.2500 270° West 221 254 3,400 2,220 Climbing New York TRACON
06:18PM 40.6833 -74.3333 298° West 242 278 6,100 3,000 Climbing New York TRACON
06:19PM 40.7000 -74.4333 282° West 287 330 9,500 2,520 Climbing New York TRACON
06:21PM 40.7311 -74.6542 281° West 351 404 13,800 2,520 Climbing New York Center
06:22PM 40.7833 -74.9576 270° West  Level FlightAware Approximate
06:22PM 40.7531 -74.8033 281° West 382 440 17,200  Level New York Center
06:23PM 40.7739 -74.9306 282° West 393 452 19,500 2,400 Climbing New York Center
06:24PM 40.7978 -75.0719 283° West 393 452 22,000 2,400 Climbing New York Center
06:25PM 40.7853 -75.2439 265° West 413 475 24,400 2,160 Climbing New York Center
06:26PM 40.7564 -75.3953 256° West 418 481 26,400 1,680 Climbing New York Center
06:27PM 40.7114 -75.5319 247° West 428 493 27,800 1,800 Climbing New York Center
06:28PM 40.6575 -75.6786 244° Southwest 439 505 30,100 2,100 Climbing New York Center
06:29PM 40.6036 -75.8197 243° Southwest 445 512 32,100 2,340 Climbing New York Center
06:30PM 40.5386 -75.9733 241° Southwest 450 518 34,800 2,220 Climbing New York Center
06:31PM 40.4889 -76.1089 244° Southwest 430 495 36,600 1,440 Climbing New York Center
06:32PM 40.4439 -76.2281 244° Southwest 419 482 37,700 660 Climbing New York Center
06:33PM 40.3939 -76.3603 244° Southwest 414 476 38,000 120 Climbing New York Center
06:34PM 40.3539 -76.4961 249° West 409 471 38,000  Level New York Center
06:35PM 40.3447 -76.6397 265° West 404 465 38,000  Level New York Center
06:36PM 40.3353 -76.7886 265° West 409 471 38,000  Level New York Center
06:37PM 40.3256 -76.9350 265° West 409 471 38,000  Level New York Center
06:38PM 40.3178 -77.0839 266° West 409 471 38,000  Level New York Center
06:39PM 40.3078 -77.2300 265° West 409 471 38,000  Level New York Center
06:41PM 40.2911 -77.5372 266° West 405 466 38,000  Level Cleveland Center
06:42PM 40.2933 -77.6978 271° West 401 461 38,000  Level Cleveland Center
06:43PM 40.2908 -77.8475 269° West 407 468 38,000  Level Cleveland Center
06:44PM 40.2833 -77.9811 266° West 407 468 38,000  Level Cleveland Center
06:45PM 40.2825 -78.1256 270° West 407 468 38,000  Level Cleveland Center
06:46PM 40.2794 -78.2753 269° West 407 468 38,000  Level Cleveland Center
06:47PM 40.2739 -78.4197 267° West 407 468 38,000  Level Cleveland Center
06:48PM 40.2703 -78.5694 268° West 407 468 38,000  Level Cleveland Center
06:49PM 40.2686 -78.7192 269° West 407 468 38,000  Level Cleveland Center
06:50PM 40.2647 -78.8661 268° West 407 468 38,000  Level Cleveland Center
06:51PM 40.2586 -79.0161 267° West 407 468 38,000  Level Cleveland Center
06:52PM 40.2544 -79.1658 268° West 412 474 38,000  Level Cleveland Center
06:53PM 40.2539 -79.3128 270° West 412 474 38,000  Level Cleveland Center
06:54PM 40.2492 -79.4625 268° West 412 474 38,000  Level Cleveland Center
06:55PM 40.2444 -79.6119 268° West 412 474 38,000  Level Cleveland Center
06:56PM 40.2392 -79.7589 267° West 412 474 38,000  Level Cleveland Center
06:57PM 40.2319 -79.9086 266° West 412 474 38,000  Level Cleveland Center
06:59PM 40.2200 -80.2281 267° West 416 479 38,000  Level Indianapolis Center
07:00PM 40.2169 -80.3792 269° West 419 482 38,000  Level Cleveland Center
07:02PM 40.2008 -80.6875 266° West 417 480 38,000  Level Indianapolis Center
07:04PM 40.1939 -80.8406 267° West 418 481 38,000  Level Indianapolis Center
07:05PM 40.1869 -80.9931 267° West 417 480 38,000  Level Indianapolis Center
07:06PM 40.1794 -81.1464 266° West 419 482 38,000  Level Indianapolis Center
07:07PM 40.1719 -81.3000 266° West 419 482 38,000  Level Indianapolis Center
07:08PM 40.1650 -81.4547 267° West 420 483 38,000  Level Indianapolis Center
07:09PM 40.1575 -81.6086 266° West 421 484 38,000  Level Indianapolis Center
07:10PM 40.1486 -81.7775 266° West 419 482 38,000  Level Indianapolis Center
07:11PM 40.1400 -81.9303 266° West 417 480 38,000  Level Indianapolis Center
07:12PM 40.1314 -82.0828 266° West 420 483 38,000  Level Indianapolis Center
07:13PM 40.1231 -82.2350 266° West 419 482 38,000  Level Indianapolis Center
07:14PM 40.1150 -82.3858 266° West 416 479 38,000  Level Indianapolis Center
07:15PM 40.1050 -82.5636 266° West 418 481 38,000  Level Indianapolis Center
07:16PM 40.0953 -82.7164 265° West 420 483 38,000  Level Indianapolis Center
07:17PM 40.0864 -82.8686 266° West 419 482 38,000  Level Indianapolis Center
07:18PM 40.0767 -83.0208 265° West 419 482 38,000  Level Indianapolis Center
07:19PM 40.0669 -83.1728 265° West 420 483 38,000  Level Indianapolis Center
07:20PM 40.0581 -83.3211 266° West 414 476 38,000  Level Indianapolis Center
07:21PM 40.0475 -83.4928 265° West 410 472 38,000  Level Indianapolis Center
07:22PM 40.0364 -83.6394 264° West 410 472 38,000  Level Indianapolis Center
07:23PM 40.0256 -83.7856 265° West 407 468 38,000  Level Indianapolis Center
07:24PM 40.0153 -83.9333 265° West 409 471 38,000  Level Indianapolis Center
07:25PM 40.0047 -84.0817 265° West 409 471 38,000  Level Indianapolis Center
07:26PM 39.9933 -84.2300 264° West 411 473 38,000  Level Indianapolis Center
07:27PM 39.9825 -84.3808 265° West 415 478 38,000  Level Indianapolis Center
07:28PM 39.9678 -84.5569 264° West 417 480 38,000  Level Indianapolis Center
07:29PM 39.9572 -84.7089 265° West 418 481 38,000  Level Indianapolis Center
07:30PM 39.9453 -84.8583 264° West 414 476 38,000  Level Indianapolis Center
07:31PM 39.9331 -85.0025 264° West 415 478 38,000  Level Indianapolis Center
07:32PM 39.9203 -85.1522 264° West 417 480 38,000  Level Indianapolis Center
07:33PM 39.9081 -85.3017 264° West 417 480 38,000  Level Indianapolis Center
07:34PM 39.8936 -85.4817 264° West 419 482 38,000  Level Indianapolis Center
07:35PM 39.8803 -85.6317 263° West 421 484 38,000  Level Indianapolis Center
07:36PM 39.8678 -85.7811 264° West 417 480 38,000  Level Indianapolis Center
07:37PM 39.8544 -85.9303 263° West 417 480 38,000  Level Indianapolis Center
07:38PM 39.8417 -86.0778 264° West 416 479 38,000 -60 Level Indianapolis Center
07:40PM 39.8253 -86.2522 263° West 422 486 37,900 -540 Descending Indianapolis Center
07:41PM 39.8069 -86.4053 261° West 427 491 36,900 -960 Descending Indianapolis Center
07:42PM 39.7708 -86.5497 252° West 433 498 36,000 -480 Descending Indianapolis Center
07:43PM 39.7342 -86.6953 252° West 429 494 36,000  Level Indianapolis Center
07:44PM 39.6978 -86.8428 252° West 432 497 36,000  Level Indianapolis Center
07:45PM 39.6611 -86.9897 252° West 430 495 36,000  Level Indianapolis Center
07:46PM 39.6181 -87.1647 252° West 428 493 36,000  Level Indianapolis Center
07:47PM 39.5806 -87.3111 252° West 431 496 36,000  Level Indianapolis Center
07:48PM 39.5425 -87.4586 252° West 432 497 36,000 -300 Level Indianapolis Center
07:49PM 39.5053 -87.6069 252° West 434 499 35,500 -780 Descending Indianapolis Center
07:50PM 39.4656 -87.7575 251° West 443 510 34,500 -1,320 Descending Indianapolis Center
07:51PM 39.4272 -87.9086 252° West 443 510 32,900 -2,160 Descending Indianapolis Center
07:52PM 39.3872 -88.0594 251° West 443 510 30,100 -1,440 Descending Indianapolis Center
07:53PM 39.3456 -88.2281 252° West 451 519 30,000 -60 Descending Kansas City Center
07:54PM 39.3044 -88.3811 251° West 452 520 30,000  Level Kansas City Center
07:55PM 39.2639 -88.5339 251° West 451 519 30,000  Level Kansas City Center
07:56PM 39.2178 -88.7003 250° West 450 518 30,000 -360 Level Kansas City Center
07:57PM 39.1786 -88.8497 251° West 445 512 29,300 -1,680 Descending Kansas City Center
07:58PM 39.1392 -88.9975 251° West 422 486 26,600 -2,520 Descending Kansas City Center
07:59PM 39.0981 -89.1442 250° West 407 468 24,200 -2,160 Descending Kansas City Center
08:00PM 39.0672 -89.2775 253° West 393 452 22,100 -2,100 Descending Kansas City Center
08:01PM 39.0367 -89.4167 254° West 380 437 19,900 -2,100 Descending Kansas City Center
08:02PM 39.0086 -89.5406 254° West 366 421 17,900 -2,100 Descending Kansas City Center
08:03PM 38.9764 -89.6608 251° West 360 414 15,700 -1,980 Descending Kansas City Center
08:04PM 38.9364 -89.7847 247° West 352 405 14,000 -1,680 Descending Kansas City Center
08:05PM 38.9031 -89.8883 248° West 346 398 12,200 -1,740 Descending Kansas City Center
08:06PM 38.8681 -89.9989 248° West 339 390 10,400 -1,200 Descending Kansas City Center
08:07PM 38.8367 -90.0994 248° West 313 360 9,800 -1,020 Descending Kansas City Center
08:08PM 38.8067 -90.1917 247° West 287 330 8,400 -1,260 Descending Kansas City Center
08:09PM 38.8328 -90.2958 288° West 276 318 7,300 -1,140 Descending Kansas City Center
08:10PM 38.8672 -90.3722 300° West 257 296 6,200 -1,140 Descending Kansas City Center
08:11PM 38.8967 -90.4486 296° West 248 285 5,000 -1,140 Descending Kansas City Center
08:12PM 38.8517 -90.4986 221° Southwest 231 266 3,900 -960 Descending Kansas City Center
08:13PM 38.8061 -90.4772 160° South 197 227 3,100 -1,260 Descending Kansas City Center
08:14PM 38.7772 -90.4253 125° Southeast 164 189 1,400 -1,200 Descending Kansas City Center
08:15PM 38.7569 -90.3828 121° Southeast 148 170 700 -720 Descending Kansas City Center